sensor_id;sensor_type;location;lat;lon;timestamp;pressure;altitude;pressure_sealevel;temperature;humidity
20111;BME280;10216;42.658;23.248;2022-09-13T00:01:41;93581.56;;;14.21;81.89
20111;BME280;10216;42.658;23.248;2022-09-13T00:04:06;93585.38;;;14.25;81.20
20111;BME280;10216;42.658;23.248;2022-09-13T00:06:32;93581.63;;;14.34;80.37
20111;BME280;10216;42.658;23.248;2022-09-13T00:08:57;93578.53;;;14.39;80.62
20111;BME280;10216;42.658;23.248;2022-09-13T00:11:27;93579.91;;;14.41;80.68
20111;BME280;10216;42.658;23.248;2022-09-13T00:13:54;93575.34;;;14.43;81.55
20111;BME280;10216;42.658;23.248;2022-09-13T00:16:22;93569.81;;;14.47;79.79
20111;BME280;10216;42.658;23.248;2022-09-13T00:18:48;93558.91;;;14.51;79.58
20111;BME280;10216;42.658;23.248;2022-09-13T00:21:17;93563.50;;;14.56;79.11
20111;BME280;10216;42.658;23.248;2022-09-13T00:23:45;93559.94;;;14.63;78.98
20111;BME280;10216;42.658;23.248;2022-09-13T00:26:13;93555.81;;;14.69;78.64
20111;BME280;10216;42.658;23.248;2022-09-13T00:28:39;93561.19;;;14.74;78.42
20111;BME280;10216;42.658;23.248;2022-09-13T00:31:06;93558.97;;;14.64;78.38
20111;BME280;10216;42.658;23.248;2022-09-13T00:33:33;93550.66;;;14.69;79.35
20111;BME280;10216;42.658;23.248;2022-09-13T00:36:06;93556.03;;;14.74;79.20
20111;BME280;10216;42.658;23.248;2022-09-13T00:38:34;93550.88;;;14.74;79.10
20111;BME280;10216;42.658;23.248;2022-09-13T00:41:01;93548.28;;;14.74;78.69
20111;BME280;10216;42.658;23.248;2022-09-13T00:46:12;93546.72;;;14.79;78.25
20111;BME280;10216;42.658;23.248;2022-09-13T00:48:40;93547.50;;;14.80;78.43
20111;BME280;10216;42.658;23.248;2022-09-13T00:51:07;93541.34;;;14.81;78.50
20111;BME280;10216;42.658;23.248;2022-09-13T00:53:37;93547.88;;;14.77;78.91
20111;BME280;10216;42.658;23.248;2022-09-13T00:58:35;93537.31;;;14.65;79.03
20111;BME280;10216;42.658;23.248;2022-09-13T01:01:03;93542.88;;;14.62;79.16
20111;BME280;10216;42.658;23.248;2022-09-13T01:03:33;93535.72;;;14.64;79.42
20111;BME280;10216;42.658;23.248;2022-09-13T01:06:05;93543.28;;;14.66;79.03
20111;BME280;10216;42.658;23.248;2022-09-13T01:08:33;93538.09;;;14.66;79.31
20111;BME280;10216;42.658;23.248;2022-09-13T01:11:02;93540.66;;;14.59;78.21
20111;BME280;10216;42.658;23.248;2022-09-13T01:13:32;93534.91;;;14.64;78.41
20111;BME280;10216;42.658;23.248;2022-09-13T01:15:58;93530.56;;;14.71;78.40
20111;BME280;10216;42.658;23.248;2022-09-13T01:18:24;93531.97;;;14.67;78.03
20111;BME280;10216;42.658;23.248;2022-09-13T01:21:29;93530.56;;;14.71;78.06
20111;BME280;10216;42.658;23.248;2022-09-13T01:38:07;93528.56;;;14.66;78.76
20111;BME280;10216;42.658;23.248;2022-09-13T01:57:50;93509.81;;;14.44;79.36
20111;BME280;10216;42.658;23.248;2022-09-13T02:00:18;93507.63;;;14.48;80.25
20111;BME280;10216;42.658;23.248;2022-09-13T02:02:51;93513.81;;;14.54;79.34
20111;BME280;10216;42.658;23.248;2022-09-13T02:10:57;93516.25;;;14.62;78.65
20111;BME280;10216;42.658;23.248;2022-09-13T02:13:27;93510.03;;;14.56;78.68
20111;BME280;10216;42.658;23.248;2022-09-13T02:15:59;93513.41;;;14.50;78.93
20111;BME280;10216;42.658;23.248;2022-09-13T02:18:34;93516.78;;;14.51;78.95
20111;BME280;10216;42.658;23.248;2022-09-13T02:21:13;93508.41;;;14.49;79.59
20111;BME280;10216;42.658;23.248;2022-09-13T02:24:02;93505.63;;;14.43;79.88
20111;BME280;10216;42.658;23.248;2022-09-13T02:26:30;93508.34;;;14.35;79.62
20111;BME280;10216;42.658;23.248;2022-09-13T02:29:02;93511.69;;;14.29;79.73
20111;BME280;10216;42.658;23.248;2022-09-13T02:31:59;93510.78;;;14.09;81.02
20111;BME280;10216;42.658;23.248;2022-09-13T02:34:54;93514.78;;;14.12;81.30
20111;BME280;10216;42.658;23.248;2022-09-13T02:37:23;93521.94;;;14.16;81.50
20111;BME280;10216;42.658;23.248;2022-09-13T02:39:56;93521.94;;;14.16;81.03
20111;BME280;10216;42.658;23.248;2022-09-13T02:42:46;93517.59;;;14.17;80.85
20111;BME280;10216;42.658;23.248;2022-09-13T02:45:14;93503.88;;;14.16;80.90
20111;BME280;10216;42.658;23.248;2022-09-13T02:48:02;93522.31;;;14.13;80.91
20111;BME280;10216;42.658;23.248;2022-09-13T02:51:02;93509.25;;;14.21;79.98
20111;BME280;10216;42.658;23.248;2022-09-13T02:53:37;93517.13;;;14.06;80.82
20111;BME280;10216;42.658;23.248;2022-09-13T03:01:20;93520.69;;;14.05;80.92
20111;BME280;10216;42.658;23.248;2022-09-13T03:03:46;93523.88;;;14.07;80.84
20111;BME280;10216;42.658;23.248;2022-09-13T03:06:12;93516.72;;;14.03;80.65
20111;BME280;10216;42.658;23.248;2022-09-13T03:08:37;93525.94;;;13.91;80.00
20111;BME280;10216;42.658;23.248;2022-09-13T03:11:16;93521.41;;;13.93;79.98
20111;BME280;10216;42.658;23.248;2022-09-13T03:16:42;93522.25;;;14.00;79.89
20111;BME280;10216;42.658;23.248;2022-09-13T03:27:51;93511.47;;;13.90;79.79
20111;BME280;10216;42.658;23.248;2022-09-13T03:30:19;93511.00;;;13.80;78.18
20111;BME280;10216;42.658;23.248;2022-09-13T03:33:10;93506.38;;;13.68;79.24
20111;BME280;10216;42.658;23.248;2022-09-13T03:35:49;93513.25;;;13.61;79.09
20111;BME280;10216;42.658;23.248;2022-09-13T03:38:40;93519.13;;;13.55;80.52
20111;BME280;10216;42.658;23.248;2022-09-13T03:41:12;93521.84;;;13.47;80.26
20111;BME280;10216;42.658;23.248;2022-09-13T03:43:44;93518.25;;;13.42;80.31
20111;BME280;10216;42.658;23.248;2022-09-13T03:46:19;93518.97;;;13.36;80.79
20111;BME280;10216;42.658;23.248;2022-09-13T03:48:47;93519.38;;;13.33;81.20
20111;BME280;10216;42.658;23.248;2022-09-13T03:51:14;93522.66;;;13.26;81.53
20111;BME280;10216;42.658;23.248;2022-09-13T03:53:46;93517.63;;;13.18;81.90
20111;BME280;10216;42.658;23.248;2022-09-13T03:56:15;93524.38;;;13.19;81.83
20111;BME280;10216;42.658;23.248;2022-09-13T03:58:41;93527.22;;;13.24;83.26
20111;BME280;10216;42.658;23.248;2022-09-13T04:01:08;93519.22;;;13.19;81.64
20111;BME280;10216;42.658;23.248;2022-09-13T04:03:35;93525.97;;;13.20;81.04
20111;BME280;10216;42.658;23.248;2022-09-13T04:06:01;93518.47;;;13.25;81.56
20111;BME280;10216;42.658;23.248;2022-09-13T04:08:26;93521.28;;;13.24;80.55
20111;BME280;10216;42.658;23.248;2022-09-13T04:10:52;93523.97;;;13.16;81.42
20111;BME280;10216;42.658;23.248;2022-09-13T04:13:17;93525.13;;;13.13;82.55
20111;BME280;10216;42.658;23.248;2022-09-13T04:15:45;93524.94;;;13.15;82.15
20111;BME280;10216;42.658;23.248;2022-09-13T04:18:10;93516.94;;;13.10;82.33
20111;BME280;10216;42.658;23.248;2022-09-13T04:20:36;93516.75;;;13.11;82.05
20111;BME280;10216;42.658;23.248;2022-09-13T04:23:01;93519.25;;;13.05;81.69
20111;BME280;10216;42.658;23.248;2022-09-13T04:25:27;93521.31;;;13.09;82.70
20111;BME280;10216;42.658;23.248;2022-09-13T04:27:54;93524.84;;;13.08;82.34
20111;BME280;10216;42.658;23.248;2022-09-13T04:30:19;93526.97;;;13.05;82.80
20111;BME280;10216;42.658;23.248;2022-09-13T04:32:46;93525.22;;;13.05;81.99
20111;BME280;10216;42.658;23.248;2022-09-13T04:35:11;93527.25;;;13.10;83.26
20111;BME280;10216;42.658;23.248;2022-09-13T04:37:37;93528.00;;;13.04;80.97
20111;BME280;10216;42.658;23.248;2022-09-13T04:40:04;93540.13;;;13.10;81.01
20111;BME280;10216;42.658;23.248;2022-09-13T04:42:31;93538.00;;;13.13;82.01
20111;BME280;10216;42.658;23.248;2022-09-13T04:44:59;93540.06;;;13.18;81.37
20111;BME280;10216;42.658;23.248;2022-09-13T04:47:24;93547.91;;;13.31;81.58
20111;BME280;10216;42.658;23.248;2022-09-13T04:49:50;93541.63;;;13.40;81.10
20111;BME280;10216;42.658;23.248;2022-09-13T04:52:15;93543.34;;;13.54;80.38
20111;BME280;10216;42.658;23.248;2022-09-13T04:54:40;93548.63;;;13.67;79.62
20111;BME280;10216;42.658;23.248;2022-09-13T04:57:06;93548.16;;;13.85;77.68
20111;BME280;10216;42.658;23.248;2022-09-13T04:59:31;93549.88;;;14.06;77.25
20111;BME280;10216;42.658;23.248;2022-09-13T05:01:57;93552.53;;;14.19;76.86
20111;BME280;10216;42.658;23.248;2022-09-13T05:04:22;93547.16;;;14.49;76.19
20111;BME280;10216;42.658;23.248;2022-09-13T05:06:48;93544.47;;;14.70;75.01
20111;BME280;10216;42.658;23.248;2022-09-13T05:09:14;93553.50;;;14.87;73.47
20111;BME280;10216;42.658;23.248;2022-09-13T05:11:40;93554.13;;;14.96;71.29
20111;BME280;10216;42.658;23.248;2022-09-13T05:14:05;93549.00;;;15.09;70.22
20111;BME280;10216;42.658;23.248;2022-09-13T05:16:32;93550.22;;;15.19;71.60
20111;BME280;10216;42.658;23.248;2022-09-13T05:18:58;93552.84;;;15.33;71.12
20111;BME280;10216;42.658;23.248;2022-09-13T05:21:25;93553.41;;;15.35;70.40
20111;BME280;10216;42.658;23.248;2022-09-13T05:23:54;93546.25;;;15.30;71.20
20111;BME280;10216;42.658;23.248;2022-09-13T05:26:22;93554.59;;;15.26;70.44
20111;BME280;10216;42.658;23.248;2022-09-13T05:28:48;93558.56;;;15.21;70.42
20111;BME280;10216;42.658;23.248;2022-09-13T05:31:24;93550.44;;;15.24;71.80
20111;BME280;10216;42.658;23.248;2022-09-13T05:34:14;93562.56;;;15.31;70.84
20111;BME280;10216;42.658;23.248;2022-09-13T05:36:42;93561.78;;;15.43;71.57
20111;BME280;10216;42.658;23.248;2022-09-13T05:39:13;93558.00;;;15.39;71.37
20111;BME280;10216;42.658;23.248;2022-09-13T05:41:39;93559.38;;;15.29;72.72
20111;BME280;10216;42.658;23.248;2022-09-13T05:44:05;93559.16;;;15.23;72.26
20111;BME280;10216;42.658;23.248;2022-09-13T05:46:31;93564.34;;;15.30;72.24
20111;BME280;10216;42.658;23.248;2022-09-13T05:48:57;93572.91;;;15.31;73.14
20111;BME280;10216;42.658;23.248;2022-09-13T05:51:23;93565.16;;;15.37;71.43
20111;BME280;10216;42.658;23.248;2022-09-13T05:53:51;93568.03;;;15.55;71.45
20111;BME280;10216;42.658;23.248;2022-09-13T05:56:22;93569.81;;;15.55;71.31
20111;BME280;10216;42.658;23.248;2022-09-13T05:58:49;93568.75;;;15.49;69.80
20111;BME280;10216;42.658;23.248;2022-09-13T06:01:17;93563.00;;;15.41;70.96
20111;BME280;10216;42.658;23.248;2022-09-13T06:03:49;93557.03;;;15.47;71.05
20111;BME280;10216;42.658;23.248;2022-09-13T06:06:15;93560.00;;;15.44;70.88
20111;BME280;10216;42.658;23.248;2022-09-13T06:08:41;93561.78;;;15.50;70.79
20111;BME280;10216;42.658;23.248;2022-09-13T06:11:08;93564.22;;;15.58;70.08
20111;BME280;10216;42.658;23.248;2022-09-13T06:13:35;93570.44;;;15.70;69.13
20111;BME280;10216;42.658;23.248;2022-09-13T06:16:03;93562.25;;;15.73;67.77
20111;BME280;10216;42.658;23.248;2022-09-13T06:18:29;93563.47;;;15.84;68.27
20111;BME280;10216;42.658;23.248;2022-09-13T06:20:59;93565.63;;;15.80;68.07
20111;BME280;10216;42.658;23.248;2022-09-13T06:23:25;93575.41;;;15.91;68.52
20111;BME280;10216;42.658;23.248;2022-09-13T06:28:26;93570.16;;;16.37;68.06
20111;BME280;10216;42.658;23.248;2022-09-13T06:30:51;93574.53;;;16.63;65.85
20111;BME280;10216;42.658;23.248;2022-09-13T06:33:17;93574.28;;;16.71;64.83
20111;BME280;10216;42.658;23.248;2022-09-13T06:35:42;93568.88;;;16.79;65.16
20111;BME280;10216;42.658;23.248;2022-09-13T06:38:07;93581.06;;;16.86;64.38
20111;BME280;10216;42.658;23.248;2022-09-13T06:40:33;93580.78;;;16.94;64.41
20111;BME280;10216;42.658;23.248;2022-09-13T06:43:01;93576.25;;;16.83;64.17
20111;BME280;10216;42.658;23.248;2022-09-13T06:45:26;93585.22;;;16.87;64.66
20111;BME280;10216;42.658;23.248;2022-09-13T06:47:52;93587.56;;;16.95;64.31
20111;BME280;10216;42.658;23.248;2022-09-13T06:50:20;93589.16;;;16.96;63.85
20111;BME280;10216;42.658;23.248;2022-09-13T06:52:45;93595.22;;;16.83;62.38
20111;BME280;10216;42.658;23.248;2022-09-13T06:55:10;93599.22;;;16.72;64.32
20111;BME280;10216;42.658;23.248;2022-09-13T06:57:36;93603.19;;;16.82;63.94
20111;BME280;10216;42.658;23.248;2022-09-13T07:00:01;93601.59;;;16.81;64.64
20111;BME280;10216;42.658;23.248;2022-09-13T07:02:27;93597.16;;;16.94;63.56
20111;BME280;10216;42.658;23.248;2022-09-13T07:04:52;93604.22;;;17.25;63.11
20111;BME280;10216;42.658;23.248;2022-09-13T07:07:18;93602.81;;;17.61;62.59
20111;BME280;10216;42.658;23.248;2022-09-13T07:09:43;93618.72;;;17.77;62.14
20111;BME280;10216;42.658;23.248;2022-09-13T07:12:11;93612.03;;;17.63;61.75
20111;BME280;10216;42.658;23.248;2022-09-13T07:14:36;93611.75;;;17.33;62.17
20111;BME280;10216;42.658;23.248;2022-09-13T07:17:01;93623.47;;;17.04;63.05
20111;BME280;10216;42.658;23.248;2022-09-13T07:19:27;93621.78;;;17.23;63.24
20111;BME280;10216;42.658;23.248;2022-09-13T07:21:54;93622.97;;;17.27;63.74
20111;BME280;10216;42.658;23.248;2022-09-13T07:24:21;93621.50;;;17.00;62.20
20111;BME280;10216;42.658;23.248;2022-09-13T07:26:47;93623.97;;;16.68;64.26
20111;BME280;10216;42.658;23.248;2022-09-13T07:29:15;93617.59;;;16.38;63.11
20111;BME280;10216;42.658;23.248;2022-09-13T07:31:44;93618.34;;;16.71;63.42
20111;BME280;10216;42.658;23.248;2022-09-13T07:34:21;93619.84;;;17.12;60.83
20111;BME280;10216;42.658;23.248;2022-09-13T07:36:47;93612.84;;;17.57;60.72
20111;BME280;10216;42.658;23.248;2022-09-13T07:39:14;93619.34;;;17.73;59.55
20111;BME280;10216;42.658;23.248;2022-09-13T07:41:40;93621.94;;;17.73;60.57
20111;BME280;10216;42.658;23.248;2022-09-13T07:44:06;93624.81;;;17.65;59.84
20111;BME280;10216;42.658;23.248;2022-09-13T07:46:34;93620.63;;;17.57;59.35
20111;BME280;10216;42.658;23.248;2022-09-13T07:49:02;93629.63;;;17.61;59.71
20111;BME280;10216;42.658;23.248;2022-09-13T07:51:35;93623.78;;;17.66;59.10
20111;BME280;10216;42.658;23.248;2022-09-13T07:54:04;93627.47;;;17.83;58.57
20111;BME280;10216;42.658;23.248;2022-09-13T07:56:31;93630.69;;;18.34;57.52
20111;BME280;10216;42.658;23.248;2022-09-13T07:59:02;93630.22;;;19.05;55.19
20111;BME280;10216;42.658;23.248;2022-09-13T08:01:33;93626.41;;;19.38;53.48
20111;BME280;10216;42.658;23.248;2022-09-13T08:04:00;93637.38;;;19.76;51.67
20111;BME280;10216;42.658;23.248;2022-09-13T08:06:28;93631.13;;;20.19;52.16
20111;BME280;10216;42.658;23.248;2022-09-13T08:08:54;93619.19;;;20.53;51.52
20111;BME280;10216;42.658;23.248;2022-09-13T08:11:24;93625.06;;;20.83;49.66
20111;BME280;10216;42.658;23.248;2022-09-13T08:13:51;93635.50;;;20.83;48.06
20111;BME280;10216;42.658;23.248;2022-09-13T08:16:19;93634.50;;;20.38;49.09
20111;BME280;10216;42.658;23.248;2022-09-13T08:18:50;93629.44;;;19.71;50.77
20111;BME280;10216;42.658;23.248;2022-09-13T08:21:16;93626.88;;;19.35;52.14
20111;BME280;10216;42.658;23.248;2022-09-13T08:23:43;93628.25;;;19.19;52.90
20111;BME280;10216;42.658;23.248;2022-09-13T08:26:08;93628.03;;;19.57;52.66
20111;BME280;10216;42.658;23.248;2022-09-13T08:28:35;93621.53;;;20.31;51.54
20111;BME280;10216;42.658;23.248;2022-09-13T08:31:11;93627.09;;;20.46;49.16
20111;BME280;10216;42.658;23.248;2022-09-13T08:33:38;93620.78;;;20.65;49.25
20111;BME280;10216;42.658;23.248;2022-09-13T08:36:04;93626.31;;;20.92;48.83
20111;BME280;10216;42.658;23.248;2022-09-13T08:38:30;93618.38;;;21.51;46.78
20111;BME280;10216;42.658;23.248;2022-09-13T08:40:59;93619.06;;;22.03;46.72
20111;BME280;10216;42.658;23.248;2022-09-13T08:43:56;93627.41;;;22.67;45.11
20111;BME280;10216;42.658;23.248;2022-09-13T08:46:44;93620.81;;;22.64;43.19
20111;BME280;10216;42.658;23.248;2022-09-13T08:49:19;93622.41;;;22.15;45.34
20111;BME280;10216;42.658;23.248;2022-09-13T08:51:50;93615.94;;;21.61;45.69
20111;BME280;10216;42.658;23.248;2022-09-13T08:54:19;93620.81;;;21.29;45.94
20111;BME280;10216;42.658;23.248;2022-09-13T09:04:49;93617.56;;;22.57;41.65
20111;BME280;10216;42.658;23.248;2022-09-13T09:07:33;93623.84;;;22.39;42.14
20111;BME280;10216;42.658;23.248;2022-09-13T09:10:21;93616.63;;;22.30;41.83
20111;BME280;10216;42.658;23.248;2022-09-13T09:13:20;93614.06;;;21.73;41.20
20111;BME280;10216;42.658;23.248;2022-09-13T09:15:49;93615.75;;;21.51;42.80
20111;BME280;10216;42.658;23.248;2022-09-13T09:18:26;93623.38;;;20.89;44.65
20111;BME280;10216;42.658;23.248;2022-09-13T09:20:55;93617.91;;;21.82;44.52
20111;BME280;10216;42.658;23.248;2022-09-13T09:23:31;93621.06;;;23.61;39.70
20111;BME280;10216;42.658;23.248;2022-09-13T09:28:35;93618.44;;;26.14;36.39
20111;BME280;10216;42.658;23.248;2022-09-13T09:31:08;93617.44;;;28.14;34.50
20111;BME280;10216;42.658;23.248;2022-09-13T09:33:49;93615.25;;;27.18;33.98
20111;BME280;10216;42.658;23.248;2022-09-13T09:36:36;93600.31;;;24.82;38.40
20111;BME280;10216;42.658;23.248;2022-09-13T09:39:05;93607.63;;;25.17;36.85
20111;BME280;10216;42.658;23.248;2022-09-13T09:41:34;93599.19;;;27.14;34.77
20111;BME280;10216;42.658;23.248;2022-09-13T09:44:20;93600.97;;;29.19;32.28
20111;BME280;10216;42.658;23.248;2022-09-13T09:47:17;93600.75;;;29.16;30.79
20111;BME280;10216;42.658;23.248;2022-09-13T09:49:46;93598.41;;;26.89;33.29
20111;BME280;10216;42.658;23.248;2022-09-13T09:55:32;93597.00;;;24.23;37.75
20111;BME280;10216;42.658;23.248;2022-09-13T09:58:00;93586.72;;;23.90;38.20
20111;BME280;10216;42.658;23.248;2022-09-13T10:00:29;93591.84;;;24.06;39.08
20111;BME280;10216;42.658;23.248;2022-09-13T10:02:59;93586.34;;;26.72;35.98
20111;BME280;10216;42.658;23.248;2022-09-13T10:05:27;93591.25;;;30.37;32.06
20111;BME280;10216;42.658;23.248;2022-09-13T10:08:04;93583.34;;;32.51;29.50
20111;BME280;10216;42.658;23.248;2022-09-13T10:10:37;93592.00;;;33.58;27.45
20111;BME280;10216;42.658;23.248;2022-09-13T10:13:06;93575.41;;;31.52;28.57
20111;BME280;10216;42.658;23.248;2022-09-13T10:15:32;93577.44;;;30.86;28.76
20111;BME280;10216;42.658;23.248;2022-09-13T10:20:28;93576.06;;;33.66;27.48
20111;BME280;10216;42.658;23.248;2022-09-13T10:26:15;93577.38;;;36.16;24.32
20111;BME280;10216;42.658;23.248;2022-09-13T10:31:19;93576.16;;;37.97;22.15
20111;BME280;10216;42.658;23.248;2022-09-13T10:36:25;93566.44;;;35.12;25.31
20111;BME280;10216;42.658;23.248;2022-09-13T10:38:58;93555.06;;;32.77;27.19
20111;BME280;10216;42.658;23.248;2022-09-13T10:41:26;93557.06;;;30.36;29.08
20111;BME280;10216;42.658;23.248;2022-09-13T10:43:56;93546.19;;;28.43;30.96
20111;BME280;10216;42.658;23.248;2022-09-13T10:46:23;93543.44;;;29.72;30.86
20111;BME280;10216;42.658;23.248;2022-09-13T10:48:49;93549.75;;;33.17;27.53
20111;BME280;10216;42.658;23.248;2022-09-13T10:54:22;93550.44;;;36.21;24.79
20111;BME280;10216;42.658;23.248;2022-09-13T10:56:48;93549.69;;;36.12;24.33
20111;BME280;10216;42.658;23.248;2022-09-13T10:59:23;93548.84;;;34.04;25.65
20111;BME280;10216;42.658;23.248;2022-09-13T11:04:59;93530.34;;;28.72;29.77
20111;BME280;10216;42.658;23.248;2022-09-13T11:30:02;93527.25;;;31.94;28.98
20111;BME280;10216;42.658;23.248;2022-09-13T11:41:49;93533.16;;;39.21;22.14
20111;BME280;10216;42.658;23.248;2022-09-13T11:45:04;93537.88;;;39.90;20.77
20111;BME280;10216;42.658;23.248;2022-09-13T11:47:32;93539.53;;;41.63;19.67
20111;BME280;10216;42.658;23.248;2022-09-13T11:55:32;93535.41;;;42.59;19.87
20111;BME280;10216;42.658;23.248;2022-09-13T11:58:04;93534.84;;;41.56;20.44
20111;BME280;10216;42.658;23.248;2022-09-13T12:00:49;93525.91;;;40.07;20.23
20111;BME280;10216;42.658;23.248;2022-09-13T12:03:26;93517.38;;;38.16;20.86
20111;BME280;10216;42.658;23.248;2022-09-13T12:06:01;93515.41;;;35.43;23.97
20111;BME280;10216;42.658;23.248;2022-09-13T12:08:39;93515.53;;;38.48;22.99
20111;BME280;10216;42.658;23.248;2022-09-13T12:13:40;93527.25;;;41.92;19.88
20111;BME280;10216;42.658;23.248;2022-09-13T12:16:10;93534.94;;;42.50;19.92
20111;BME280;10216;42.658;23.248;2022-09-13T12:18:46;93534.53;;;42.51;19.36
20111;BME280;10216;42.658;23.248;2022-09-13T12:21:16;93531.69;;;42.07;19.94
20111;BME280;10216;42.658;23.248;2022-09-13T12:24:33;93531.44;;;43.71;18.31
20111;BME280;10216;42.658;23.248;2022-09-13T12:29:55;93519.72;;;40.41;21.10
20111;BME280;10216;42.658;23.248;2022-09-13T12:32:25;93521.69;;;40.25;21.47
20111;BME280;10216;42.658;23.248;2022-09-13T12:35:01;93511.66;;;37.41;22.10
20111;BME280;10216;42.658;23.248;2022-09-13T12:40:42;93498.50;;;32.63;27.08
20111;BME280;10216;42.658;23.248;2022-09-13T12:56:55;93508.22;;;38.17;22.76
20111;BME280;10216;42.658;23.248;2022-09-13T13:02:37;93509.44;;;38.36;21.66
20111;BME280;10216;42.658;23.248;2022-09-13T13:05:19;93505.50;;;40.06;20.63
20111;BME280;10216;42.658;23.248;2022-09-13T13:07:56;93513.00;;;40.74;20.61
20111;BME280;10216;42.658;23.248;2022-09-13T13:10:31;93518.84;;;41.21;19.85
20111;BME280;10216;42.658;23.248;2022-09-13T13:13:24;93514.47;;;42.86;19.55
20111;BME280;10216;42.658;23.248;2022-09-13T13:15:59;93516.84;;;38.82;21.12
20111;BME280;10216;42.658;23.248;2022-09-13T13:36:23;93499.75;;;26.35;33.63
20111;BME280;10216;42.658;23.248;2022-09-13T13:38:51;93500.00;;;25.63;35.14
20111;BME280;10216;42.658;23.248;2022-09-13T13:46:44;93502.19;;;24.51;37.01
20111;BME280;10216;42.658;23.248;2022-09-13T13:57:33;93511.38;;;23.80;38.65
20111;BME280;10216;42.658;23.248;2022-09-13T14:00:20;93503.72;;;22.98;39.49
20111;BME280;10216;42.658;23.248;2022-09-13T14:13:42;93508.56;;;21.62;41.63
20111;BME280;10216;42.658;23.248;2022-09-13T14:19:33;93519.03;;;21.34;41.10
20111;BME280;10216;42.658;23.248;2022-09-13T14:24:55;93507.56;;;21.35;41.47
20111;BME280;10216;42.658;23.248;2022-09-13T14:27:30;93512.66;;;21.41;43.39
20111;BME280;10216;42.658;23.248;2022-09-13T14:32:53;93514.06;;;21.32;42.09
20111;BME280;10216;42.658;23.248;2022-09-13T14:35:39;93513.41;;;21.25;43.29
20111;BME280;10216;42.658;23.248;2022-09-13T14:38:21;93516.03;;;21.14;43.43
20111;BME280;10216;42.658;23.248;2022-09-13T14:40:49;93510.75;;;20.97;42.38
20111;BME280;10216;42.658;23.248;2022-09-13T14:43:23;93512.97;;;20.88;43.46
20111;BME280;10216;42.658;23.248;2022-09-13T14:45:54;93515.81;;;20.87;43.32
20111;BME280;10216;42.658;23.248;2022-09-13T14:48:27;93510.38;;;20.77;43.17
20111;BME280;10216;42.658;23.248;2022-09-13T14:51:07;93513.81;;;20.54;42.95
20111;BME280;10216;42.658;23.248;2022-09-13T14:53:38;93512.25;;;20.53;42.63
20111;BME280;10216;42.658;23.248;2022-09-13T14:56:32;93519.28;;;20.41;43.82
20111;BME280;10216;42.658;23.248;2022-09-13T14:58:59;93517.16;;;20.38;44.68
20111;BME280;10216;42.658;23.248;2022-09-13T15:01:29;93513.84;;;20.42;44.92
20111;BME280;10216;42.658;23.248;2022-09-13T15:03:57;93519.06;;;20.42;44.19
20111;BME280;10216;42.658;23.248;2022-09-13T15:06:29;93522.69;;;20.41;45.68
20111;BME280;10216;42.658;23.248;2022-09-13T15:09:12;93527.09;;;20.29;43.87
20111;BME280;10216;42.658;23.248;2022-09-13T15:14:34;93519.38;;;19.99;43.29
20111;BME280;10216;42.658;23.248;2022-09-13T15:17:11;93520.25;;;19.81;44.15
20111;BME280;10216;42.658;23.248;2022-09-13T15:19:47;93527.47;;;19.68;45.46
20111;BME280;10216;42.658;23.248;2022-09-13T15:24:46;93516.34;;;19.49;44.79
20111;BME280;10216;42.658;23.248;2022-09-13T15:27:18;93514.75;;;19.48;45.67
20111;BME280;10216;42.658;23.248;2022-09-13T15:29:59;93525.47;;;19.40;44.53
20111;BME280;10216;42.658;23.248;2022-09-13T15:32:38;93509.91;;;19.22;45.61
20111;BME280;10216;42.658;23.248;2022-09-13T15:35:30;93508.63;;;19.13;46.24
20111;BME280;10216;42.658;23.248;2022-09-13T15:40:45;93517.69;;;18.92;46.74
20111;BME280;10216;42.658;23.248;2022-09-13T15:43:11;93520.59;;;18.84;46.78
20111;BME280;10216;42.658;23.248;2022-09-13T15:45:36;93520.19;;;18.68;47.51
20111;BME280;10216;42.658;23.248;2022-09-13T15:48:02;93520.63;;;18.65;47.58
20111;BME280;10216;42.658;23.248;2022-09-13T15:50:29;93525.31;;;18.57;47.63
20111;BME280;10216;42.658;23.248;2022-09-13T15:52:57;93540.16;;;18.50;47.77
20111;BME280;10216;42.658;23.248;2022-09-13T15:55:24;93529.38;;;18.46;48.70
20111;BME280;10216;42.658;23.248;2022-09-13T15:57:50;93543.06;;;18.42;49.83
20111;BME280;10216;42.658;23.248;2022-09-13T16:00:21;93551.47;;;18.37;48.59
20111;BME280;10216;42.658;23.248;2022-09-13T16:02:47;93551.84;;;18.22;48.57
20111;BME280;10216;42.658;23.248;2022-09-13T16:05:13;93555.84;;;18.18;49.39
20111;BME280;10216;42.658;23.248;2022-09-13T16:07:40;93560.72;;;18.15;50.57
20111;BME280;10216;42.658;23.248;2022-09-13T16:10:18;93555.53;;;18.08;50.41
20111;BME280;10216;42.658;23.248;2022-09-13T16:12:44;93557.78;;;18.05;49.58
20111;BME280;10216;42.658;23.248;2022-09-13T16:15:10;93552.69;;;17.91;51.14
20111;BME280;10216;42.658;23.248;2022-09-13T16:17:37;93555.34;;;17.85;50.94
20111;BME280;10216;42.658;23.248;2022-09-13T16:20:04;93554.16;;;17.81;50.68
20111;BME280;10216;42.658;23.248;2022-09-13T16:22:31;93553.91;;;17.64;51.26
20111;BME280;10216;42.658;23.248;2022-09-13T16:24:56;93560.31;;;17.62;51.82
20111;BME280;10216;42.658;23.248;2022-09-13T16:27:22;93553.59;;;17.47;51.15
20111;BME280;10216;42.658;23.248;2022-09-13T16:29:51;93555.59;;;17.45;51.94
20111;BME280;10216;42.658;23.248;2022-09-13T16:32:16;93558.66;;;17.36;53.17
20111;BME280;10216;42.658;23.248;2022-09-13T16:34:42;93566.94;;;17.20;51.90
20111;BME280;10216;42.658;23.248;2022-09-13T16:37:09;93562.34;;;17.15;54.30
20111;BME280;10216;42.658;23.248;2022-09-13T16:39:37;93567.56;;;17.08;53.51
20111;BME280;10216;42.658;23.248;2022-09-13T16:42:03;93566.59;;;17.03;53.91
20111;BME280;10216;42.658;23.248;2022-09-13T16:44:29;93558.47;;;16.93;54.94